sensor_id;sensor_type;location;lat;lon;timestamp;temperature;humidity
35603;DHT22;21725;50.836;4.368;2022-12-18T00:01:40;2.20;96.70
35603;DHT22;21725;50.836;4.368;2022-12-18T00:04:41;2.30;96.70
35603;DHT22;21725;50.836;4.368;2022-12-18T00:07:41;2.20;96.60
35603;DHT22;21725;50.836;4.368;2022-12-18T00:10:43;2.60;96.90
35603;DHT22;21725;50.836;4.368;2022-12-18T00:13:46;2.20;96.70
35603;DHT22;21725;50.836;4.368;2022-12-18T00:16:50;2.20;96.40
35603;DHT22;21725;50.836;4.368;2022-12-18T00:19:50;2.30;96.50
35603;DHT22;21725;50.836;4.368;2022-12-18T00:22:54;2.10;96.50
35603;DHT22;21725;50.836;4.368;2022-12-18T00:25:58;2.10;96.20
35603;DHT22;21725;50.836;4.368;2022-12-18T00:29:10;2.20;96.30
35603;DHT22;21725;50.836;4.368;2022-12-18T00:32:14;2.10;96.00
35603;DHT22;21725;50.836;4.368;2022-12-18T00:35:15;2.40;96.00
35603;DHT22;21725;50.836;4.368;2022-12-18T00:38:16;2.20;95.80
35603;DHT22;21725;50.836;4.368;2022-12-18T00:41:24;2.40;95.70
35603;DHT22;21725;50.836;4.368;2022-12-18T00:44:44;2.50;95.20
35603;DHT22;21725;50.836;4.368;2022-12-18T00:47:47;2.50;95.50
35603;DHT22;21725;50.836;4.368;2022-12-18T00:50:49;1.90;95.50
35603;DHT22;21725;50.836;4.368;2022-12-18T00:53:51;2.00;95.60
35603;DHT22;21725;50.836;4.368;2022-12-18T00:56:54;1.80;95.30
35603;DHT22;21725;50.836;4.368;2022-12-18T00:59:55;1.90;95.10
35603;DHT22;21725;50.836;4.368;2022-12-18T01:03:04;1.90;94.70
35603;DHT22;21725;50.836;4.368;2022-12-18T01:06:08;1.80;94.40
35603;DHT22;21725;50.836;4.368;2022-12-18T01:09:09;1.60;94.70
35603;DHT22;21725;50.836;4.368;2022-12-18T01:12:10;1.50;95.10
35603;DHT22;21725;50.836;4.368;2022-12-18T01:15:13;1.50;95.00
35603;DHT22;21725;50.836;4.368;2022-12-18T01:18:17;1.60;94.70
35603;DHT22;21725;50.836;4.368;2022-12-18T01:21:23;1.80;94.50
35603;DHT22;21725;50.836;4.368;2022-12-18T01:24:26;1.70;94.70
35603;DHT22;21725;50.836;4.368;2022-12-18T01:27:30;1.70;94.40
35603;DHT22;21725;50.836;4.368;2022-12-18T01:30:31;1.80;94.10
35603;DHT22;21725;50.836;4.368;2022-12-18T01:33:34;1.90;93.90
35603;DHT22;21725;50.836;4.368;2022-12-18T01:36:36;1.60;94.30
35603;DHT22;21725;50.836;4.368;2022-12-18T01:39:37;1.70;94.20
35603;DHT22;21725;50.836;4.368;2022-12-18T01:42:38;1.70;94.20
35603;DHT22;21725;50.836;4.368;2022-12-18T01:45:39;1.70;94.20
35603;DHT22;21725;50.836;4.368;2022-12-18T01:48:40;2.00;94.00
35603;DHT22;21725;50.836;4.368;2022-12-18T01:51:41;1.90;94.00
35603;DHT22;21725;50.836;4.368;2022-12-18T01:54:42;2.00;93.70
35603;DHT22;21725;50.836;4.368;2022-12-18T01:57:42;1.90;93.90
35603;DHT22;21725;50.836;4.368;2022-12-18T02:00:43;2.20;93.80
35603;DHT22;21725;50.836;4.368;2022-12-18T02:03:45;2.20;93.50
35603;DHT22;21725;50.836;4.368;2022-12-18T02:06:52;2.20;93.30
35603;DHT22;21725;50.836;4.368;2022-12-18T02:13:36;2.20;93.20
35603;DHT22;21725;50.836;4.368;2022-12-18T02:16:55;2.20;93.10
35603;DHT22;21725;50.836;4.368;2022-12-18T02:20:33;2.20;93.00
35603;DHT22;21725;50.836;4.368;2022-12-18T02:26:56;2.30;93.10
35603;DHT22;21725;50.836;4.368;2022-12-18T02:29:59;2.10;93.20
35603;DHT22;21725;50.836;4.368;2022-12-18T02:33:04;2.10;93.10
35603;DHT22;21725;50.836;4.368;2022-12-18T02:36:05;2.50;92.90
35603;DHT22;21725;50.836;4.368;2022-12-18T02:39:09;2.10;92.80
35603;DHT22;21725;50.836;4.368;2022-12-18T02:42:13;2.00;92.90
35603;DHT22;21725;50.836;4.368;2022-12-18T02:45:14;2.10;92.70
35603;DHT22;21725;50.836;4.368;2022-12-18T02:48:18;2.20;92.50
35603;DHT22;21725;50.836;4.368;2022-12-18T02:51:24;2.20;92.40
35603;DHT22;21725;50.836;4.368;2022-12-18T02:54:40;2.20;92.30
35603;DHT22;21725;50.836;4.368;2022-12-18T03:01:19;2.20;92.80
35603;DHT22;21725;50.836;4.368;2022-12-18T03:04:45;1.70;93.10
35603;DHT22;21725;50.836;4.368;2022-12-18T03:07:55;1.60;92.90
35603;DHT22;21725;50.836;4.368;2022-12-18T03:11:09;1.50;92.90
35603;DHT22;21725;50.836;4.368;2022-12-18T03:14:11;1.50;93.10
35603;DHT22;21725;50.836;4.368;2022-12-18T03:17:17;1.70;93.20
35603;DHT22;21725;50.836;4.368;2022-12-18T03:20:23;1.10;92.80
35603;DHT22;21725;50.836;4.368;2022-12-18T03:23:36;1.80;92.90
35603;DHT22;21725;50.836;4.368;2022-12-18T03:26:38;1.80;93.00
35603;DHT22;21725;50.836;4.368;2022-12-18T03:29:55;1.80;92.60
35603;DHT22;21725;50.836;4.368;2022-12-18T03:33:23;2.10;92.80
35603;DHT22;21725;50.836;4.368;2022-12-18T03:36:26;2.00;92.60
35603;DHT22;21725;50.836;4.368;2022-12-18T03:39:36;1.80;92.60
35603;DHT22;21725;50.836;4.368;2022-12-18T03:45:47;1.40;92.90
35603;DHT22;21725;50.836;4.368;2022-12-18T03:48:56;1.60;92.80
35603;DHT22;21725;50.836;4.368;2022-12-18T03:52:06;1.50;92.80
35603;DHT22;21725;50.836;4.368;2022-12-18T03:55:10;1.60;92.90
35603;DHT22;21725;50.836;4.368;2022-12-18T03:58:13;1.30;92.60
35603;DHT22;21725;50.836;4.368;2022-12-18T04:01:16;1.40;92.60
35603;DHT22;21725;50.836;4.368;2022-12-18T04:04:18;1.40;92.80
35603;DHT22;21725;50.836;4.368;2022-12-18T04:07:20;1.10;92.70
35603;DHT22;21725;50.836;4.368;2022-12-18T04:10:22;1.20;92.60
35603;DHT22;21725;50.836;4.368;2022-12-18T04:13:36;1.40;92.20
35603;DHT22;21725;50.836;4.368;2022-12-18T04:16:37;1.30;92.10
35603;DHT22;21725;50.836;4.368;2022-12-18T04:19:38;1.70;92.20
35603;DHT22;21725;50.836;4.368;2022-12-18T04:22:39;1.50;92.10
35603;DHT22;21725;50.836;4.368;2022-12-18T04:25:40;1.30;92.20
35603;DHT22;21725;50.836;4.368;2022-12-18T04:28:43;1.60;92.40
35603;DHT22;21725;50.836;4.368;2022-12-18T04:31:46;2.10;92.20
35603;DHT22;21725;50.836;4.368;2022-12-18T04:34:54;1.40;91.90
35603;DHT22;21725;50.836;4.368;2022-12-18T04:37:57;1.40;92.10
35603;DHT22;21725;50.836;4.368;2022-12-18T04:40:59;1.50;91.90
35603;DHT22;21725;50.836;4.368;2022-12-18T04:44:00;1.50;92.00
35603;DHT22;21725;50.836;4.368;2022-12-18T04:47:03;1.80;92.00
35603;DHT22;21725;50.836;4.368;2022-12-18T04:50:05;1.40;92.00
35603;DHT22;21725;50.836;4.368;2022-12-18T04:53:05;1.40;92.10
35603;DHT22;21725;50.836;4.368;2022-12-18T04:56:13;1.80;91.90
35603;DHT22;21725;50.836;4.368;2022-12-18T04:59:17;1.50;91.90
35603;DHT22;21725;50.836;4.368;2022-12-18T05:34:40;-2.20;95.50
35603;DHT22;21725;50.836;4.368;2022-12-18T05:37:44;0.10;95.40
35603;DHT22;21725;50.836;4.368;2022-12-18T05:40:56;0.90;94.00
35603;DHT22;21725;50.836;4.368;2022-12-18T05:43:57;1.00;93.10
35603;DHT22;21725;50.836;4.368;2022-12-18T05:47:06;1.00;92.70
35603;DHT22;21725;50.836;4.368;2022-12-18T05:50:09;1.00;92.30
35603;DHT22;21725;50.836;4.368;2022-12-18T05:53:14;1.40;92.20
35603;DHT22;21725;50.836;4.368;2022-12-18T05:56:19;1.30;91.80
35603;DHT22;21725;50.836;4.368;2022-12-18T05:59:23;1.30;91.70
35603;DHT22;21725;50.836;4.368;2022-12-18T06:02:24;1.50;91.30
35603;DHT22;21725;50.836;4.368;2022-12-18T06:05:25;1.60;91.00
35603;DHT22;21725;50.836;4.368;2022-12-18T06:08:35;1.60;90.90
35603;DHT22;21725;50.836;4.368;2022-12-18T06:11:37;1.60;91.10
35603;DHT22;21725;50.836;4.368;2022-12-18T06:14:38;1.50;91.00
35603;DHT22;21725;50.836;4.368;2022-12-18T06:17:39;1.40;91.50
35603;DHT22;21725;50.836;4.368;2022-12-18T06:20:40;1.10;91.70
35603;DHT22;21725;50.836;4.368;2022-12-18T06:23:41;1.30;92.00
35603;DHT22;21725;50.836;4.368;2022-12-18T06:26:42;1.30;91.80
35603;DHT22;21725;50.836;4.368;2022-12-18T06:29:43;2.10;91.60
35603;DHT22;21725;50.836;4.368;2022-12-18T06:32:49;1.60;91.10
35603;DHT22;21725;50.836;4.368;2022-12-18T06:35:52;1.40;91.10
35603;DHT22;21725;50.836;4.368;2022-12-18T06:38:53;1.50;91.00
35603;DHT22;21725;50.836;4.368;2022-12-18T06:41:56;1.40;91.10
35603;DHT22;21725;50.836;4.368;2022-12-18T06:44:57;1.80;91.40
35603;DHT22;21725;50.836;4.368;2022-12-18T06:47:57;1.30;91.10
35603;DHT22;21725;50.836;4.368;2022-12-18T06:51:03;0.90;91.10
35603;DHT22;21725;50.836;4.368;2022-12-18T06:54:04;1.40;91.30
35603;DHT22;21725;50.836;4.368;2022-12-18T06:57:05;1.40;91.20
35603;DHT22;21725;50.836;4.368;2022-12-18T07:00:07;1.40;91.40
35603;DHT22;21725;50.836;4.368;2022-12-18T07:03:08;1.20;91.40
35603;DHT22;21725;50.836;4.368;2022-12-18T07:06:18;1.10;91.50
35603;DHT22;21725;50.836;4.368;2022-12-18T07:09:19;1.30;91.70
35603;DHT22;21725;50.836;4.368;2022-12-18T07:12:20;1.20;91.70
35603;DHT22;21725;50.836;4.368;2022-12-18T07:15:20;1.50;91.30
35603;DHT22;21725;50.836;4.368;2022-12-18T07:18:24;1.40;91.10
35603;DHT22;21725;50.836;4.368;2022-12-18T07:21:27;1.30;91.20
35603;DHT22;21725;50.836;4.368;2022-12-18T07:24:40;1.30;91.10
35603;DHT22;21725;50.836;4.368;2022-12-18T07:27:41;1.80;91.00
35603;DHT22;21725;50.836;4.368;2022-12-18T07:30:44;1.40;91.30
35603;DHT22;21725;50.836;4.368;2022-12-18T07:33:48;0.80;91.70
35603;DHT22;21725;50.836;4.368;2022-12-18T07:36:49;0.80;92.30
35603;DHT22;21725;50.836;4.368;2022-12-18T07:39:52;0.80;92.30
35603;DHT22;21725;50.836;4.368;2022-12-18T07:42:52;1.20;91.80
35603;DHT22;21725;50.836;4.368;2022-12-18T07:46:00;1.30;91.60
35603;DHT22;21725;50.836;4.368;2022-12-18T07:49:02;1.50;91.60
35603;DHT22;21725;50.836;4.368;2022-12-18T07:52:03;1.20;91.80
35603;DHT22;21725;50.836;4.368;2022-12-18T07:55:06;1.30;91.50
35603;DHT22;21725;50.836;4.368;2022-12-18T07:58:08;1.40;91.30
35603;DHT22;21725;50.836;4.368;2022-12-18T08:01:11;1.50;90.70
35603;DHT22;21725;50.836;4.368;2022-12-18T08:04:12;1.40;91.00
35603;DHT22;21725;50.836;4.368;2022-12-18T08:07:13;1.40;91.00
35603;DHT22;21725;50.836;4.368;2022-12-18T08:10:14;1.60;91.10
35603;DHT22;21725;50.836;4.368;2022-12-18T08:13:40;1.40;90.90
35603;DHT22;21725;50.836;4.368;2022-12-18T08:17:19;1.40;91.30
35603;DHT22;21725;50.836;4.368;2022-12-18T08:20:37;1.20;91.50
35603;DHT22;21725;50.836;4.368;2022-12-18T08:23:40;1.00;91.60
35603;DHT22;21725;50.836;4.368;2022-12-18T08:26:41;0.90;91.70
35603;DHT22;21725;50.836;4.368;2022-12-18T08:29:42;1.20;91.80
35603;DHT22;21725;50.836;4.368;2022-12-18T08:32:45;1.10;91.70
35603;DHT22;21725;50.836;4.368;2022-12-18T08:35:49;1.30;91.70
35603;DHT22;21725;50.836;4.368;2022-12-18T08:38:52;1.20;91.60
35603;DHT22;21725;50.836;4.368;2022-12-18T08:41:53;1.40;91.50
35603;DHT22;21725;50.836;4.368;2022-12-18T08:45:13;1.50;91.40
35603;DHT22;21725;50.836;4.368;2022-12-18T08:48:16;1.60;91.20
35603;DHT22;21725;50.836;4.368;2022-12-18T08:51:18;1.80;91.00
35603;DHT22;21725;50.836;4.368;2022-12-18T08:54:21;1.90;90.70
35603;DHT22;21725;50.836;4.368;2022-12-18T08:57:22;1.90;90.90
35603;DHT22;21725;50.836;4.368;2022-12-18T09:00:25;2.00;90.60
35603;DHT22;21725;50.836;4.368;2022-12-18T09:03:25;2.00;90.60
35603;DHT22;21725;50.836;4.368;2022-12-18T09:06:28;2.20;90.50
35603;DHT22;21725;50.836;4.368;2022-12-18T09:09:32;2.00;90.80
35603;DHT22;21725;50.836;4.368;2022-12-18T09:12:33;2.20;90.60
35603;DHT22;21725;50.836;4.368;2022-12-18T09:15:47;2.50;90.10
35603;DHT22;21725;50.836;4.368;2022-12-18T09:18:48;2.60;89.90
35603;DHT22;21725;50.836;4.368;2022-12-18T09:21:49;2.90;89.40
35603;DHT22;21725;50.836;4.368;2022-12-18T09:24:52;2.90;89.90
35603;DHT22;21725;50.836;4.368;2022-12-18T09:27:53;2.40;90.10
35603;DHT22;21725;50.836;4.368;2022-12-18T09:30:53;2.90;90.10
35603;DHT22;21725;50.836;4.368;2022-12-18T09:33:55;1.10;90.20
35603;DHT22;21725;50.836;4.368;2022-12-18T09:36:57;1.80;90.10
35603;DHT22;21725;50.836;4.368;2022-12-18T09:40:05;2.30;90.40
35603;DHT22;21725;50.836;4.368;2022-12-18T09:43:07;2.00;90.80
35603;DHT22;21725;50.836;4.368;2022-12-18T09:46:19;2.00;91.30
35603;DHT22;21725;50.836;4.368;2022-12-18T09:49:23;2.20;90.70
35603;DHT22;21725;50.836;4.368;2022-12-18T09:55:44;2.60;90.60
35603;DHT22;21725;50.836;4.368;2022-12-18T09:59:13;3.00;90.10
35603;DHT22;21725;50.836;4.368;2022-12-18T10:02:20;3.30;90.10
35603;DHT22;21725;50.836;4.368;2022-12-18T10:05:56;3.40;89.30
35603;DHT22;21725;50.836;4.368;2022-12-18T10:19:15;3.60;89.40
35603;DHT22;21725;50.836;4.368;2022-12-18T10:26:03;3.60;88.80
35603;DHT22;21725;50.836;4.368;2022-12-18T10:29:12;3.40;89.60
35603;DHT22;21725;50.836;4.368;2022-12-18T10:32:22;3.60;90.00
35603;DHT22;21725;50.836;4.368;2022-12-18T10:35:25;3.70;89.80
35603;DHT22;21725;50.836;4.368;2022-12-18T10:38:29;3.90;89.30
35603;DHT22;21725;50.836;4.368;2022-12-18T10:41:37;4.00;88.80
35603;DHT22;21725;50.836;4.368;2022-12-18T10:44:40;4.30;89.00
35603;DHT22;21725;50.836;4.368;2022-12-18T10:47:49;4.00;88.60
35603;DHT22;21725;50.836;4.368;2022-12-18T10:50:51;4.20;88.10
35603;DHT22;21725;50.836;4.368;2022-12-18T10:54:14;4.30;88.70
35603;DHT22;21725;50.836;4.368;2022-12-18T10:57:17;4.20;88.60
35603;DHT22;21725;50.836;4.368;2022-12-18T11:22:59;1.60;92.20
35603;DHT22;21725;50.836;4.368;2022-12-18T11:26:03;1.70;92.80
35603;DHT22;21725;50.836;4.368;2022-12-18T11:29:15;2.90;92.10
35603;DHT22;21725;50.836;4.368;2022-12-18T11:32:41;3.50;90.30
35603;DHT22;21725;50.836;4.368;2022-12-18T11:35:51;3.80;88.10
35603;DHT22;21725;50.836;4.368;2022-12-18T11:38:54;4.00;87.10
35603;DHT22;21725;50.836;4.368;2022-12-18T11:41:59;4.20;86.50
35603;DHT22;21725;50.836;4.368;2022-12-18T11:48:22;4.40;86.40
35603;DHT22;21725;50.836;4.368;2022-12-18T11:52:16;4.50;86.80
35603;DHT22;21725;50.836;4.368;2022-12-18T11:55:39;4.50;86.20
35603;DHT22;21725;50.836;4.368;2022-12-18T12:12:38;4.70;86.60
35603;DHT22;21725;50.836;4.368;2022-12-18T12:30:06;4.20;88.30
35603;DHT22;21725;50.836;4.368;2022-12-18T12:37:28;4.30;88.50
35603;DHT22;21725;50.836;4.368;2022-12-18T12:40:51;4.30;88.90
35603;DHT22;21725;50.836;4.368;2022-12-18T12:43:59;4.60;87.80
35603;DHT22;21725;50.836;4.368;2022-12-18T12:47:30;5.00;87.60
35603;DHT22;21725;50.836;4.368;2022-12-18T13:06:00;4.60;88.10
35603;DHT22;21725;50.836;4.368;2022-12-18T13:09:03;3.30;86.50
35603;DHT22;21725;50.836;4.368;2022-12-18T13:12:10;4.50;87.10
35603;DHT22;21725;50.836;4.368;2022-12-18T13:15:34;4.30;88.30
35603;DHT22;21725;50.836;4.368;2022-12-18T13:18:51;4.10;88.80
35603;DHT22;21725;50.836;4.368;2022-12-18T13:21:54;4.10;89.00
35603;DHT22;21725;50.836;4.368;2022-12-18T13:24:55;4.00;89.60
35603;DHT22;21725;50.836;4.368;2022-12-18T13:38:34;4.20;90.00
35603;DHT22;21725;50.836;4.368;2022-12-18T13:41:35;4.10;90.10
35603;DHT22;21725;50.836;4.368;2022-12-18T13:44:42;4.40;89.90
35603;DHT22;21725;50.836;4.368;2022-12-18T13:47:43;4.70;90.10
35603;DHT22;21725;50.836;4.368;2022-12-18T13:50:53;4.50;90.00
35603;DHT22;21725;50.836;4.368;2022-12-18T13:57:31;4.80;89.60
35603;DHT22;21725;50.836;4.368;2022-12-18T14:00:42;4.40;90.00
35603;DHT22;21725;50.836;4.368;2022-12-18T14:03:43;4.40;90.00
35603;DHT22;21725;50.836;4.368;2022-12-18T14:06:44;4.30;90.10
35603;DHT22;21725;50.836;4.368;2022-12-18T14:09:49;4.40;90.10
35603;DHT22;21725;50.836;4.368;2022-12-18T14:12:51;4.60;89.70
35603;DHT22;21725;50.836;4.368;2022-12-18T14:16:07;4.70;89.50
35603;DHT22;21725;50.836;4.368;2022-12-18T14:19:15;4.70;88.70
35603;DHT22;21725;50.836;4.368;2022-12-18T14:22:21;4.60;89.80
35603;DHT22;21725;50.836;4.368;2022-12-18T14:25:29;4.70;89.70
35603;DHT22;21725;50.836;4.368;2022-12-18T14:28:30;4.80;89.10
35603;DHT22;21725;50.836;4.368;2022-12-18T14:31:33;4.70;89.60
35603;DHT22;21725;50.836;4.368;2022-12-18T14:34:34;4.60;89.90
35603;DHT22;21725;50.836;4.368;2022-12-18T14:37:34;4.80;89.70
35603;DHT22;21725;50.836;4.368;2022-12-18T14:40:35;4.50;90.10
35603;DHT22;21725;50.836;4.368;2022-12-18T14:43:38;4.50;90.10
35603;DHT22;21725;50.836;4.368;2022-12-18T14:46:46;4.50;90.20
35603;DHT22;21725;50.836;4.368;2022-12-18T14:49:47;4.50;89.80
35603;DHT22;21725;50.836;4.368;2022-12-18T14:52:48;4.50;90.10
35603;DHT22;21725;50.836;4.368;2022-12-18T14:55:49;4.50;90.20
35603;DHT22;21725;50.836;4.368;2022-12-18T14:59:15;4.90;89.60
35603;DHT22;21725;50.836;4.368;2022-12-18T15:02:25;4.80;90.00
35603;DHT22;21725;50.836;4.368;2022-12-18T15:05:31;4.60;89.20
35603;DHT22;21725;50.836;4.368;2022-12-18T15:08:36;4.70;88.70
35603;DHT22;21725;50.836;4.368;2022-12-18T15:14:41;4.50;89.80
35603;DHT22;21725;50.836;4.368;2022-12-18T15:17:42;4.70;89.40
35603;DHT22;21725;50.836;4.368;2022-12-18T15:20:52;4.80;88.40
35603;DHT22;21725;50.836;4.368;2022-12-18T15:23:54;3.40;86.90
35603;DHT22;21725;50.836;4.368;2022-12-18T15:27:00;4.90;88.60
35603;DHT22;21725;50.836;4.368;2022-12-18T15:33:23;4.60;88.10
35603;DHT22;21725;50.836;4.368;2022-12-18T15:36:28;4.50;88.90
35603;DHT22;21725;50.836;4.368;2022-12-18T15:39:30;4.50;88.70
35603;DHT22;21725;50.836;4.368;2022-12-18T15:42:30;4.40;89.20
35603;DHT22;21725;50.836;4.368;2022-12-18T15:45:50;4.20;89.30
35603;DHT22;21725;50.836;4.368;2022-12-18T15:48:53;3.60;90.10
35603;DHT22;21725;50.836;4.368;2022-12-18T15:51:57;3.80;90.50
35603;DHT22;21725;50.836;4.368;2022-12-18T15:54:59;4.00;90.10
35603;DHT22;21725;50.836;4.368;2022-12-18T15:58:39;3.90;90.30
35603;DHT22;21725;50.836;4.368;2022-12-18T16:01:40;3.80;90.10
35603;DHT22;21725;50.836;4.368;2022-12-18T16:04:52;3.80;90.30
35603;DHT22;21725;50.836;4.368;2022-12-18T16:07:54;3.80;90.20
35603;DHT22;21725;50.836;4.368;2022-12-18T16:11:08;3.90;89.90
35603;DHT22;21725;50.836;4.368;2022-12-18T16:21:33;4.60;87.40
35603;DHT22;21725;50.836;4.368;2022-12-18T16:24:40;4.40;87.90
35603;DHT22;21725;50.836;4.368;2022-12-18T16:34:37;4.50;87.70
35603;DHT22;21725;50.836;4.368;2022-12-18T16:56:46;4.10;89.00
35603;DHT22;21725;50.836;4.368;2022-12-18T17:23:51;3.30;93.00
35603;DHT22;21725;50.836;4.368;2022-12-18T17:30:30;3.20;92.00
35603;DHT22;21725;50.836;4.368;2022-12-18T17:33:30;3.70;91.50
35603;DHT22;21725;50.836;4.368;2022-12-18T17:36:31;4.40;90.90
35603;DHT22;21725;50.836;4.368;2022-12-18T17:39:32;4.40;90.80
35603;DHT22;21725;50.836;4.368;2022-12-18T17:42:33;4.40;90.70
35603;DHT22;21725;50.836;4.368;2022-12-18T17:45:37;4.30;91.10
35603;DHT22;21725;50.836;4.368;2022-12-18T17:48:38;3.70;91.40
35603;DHT22;21725;50.836;4.368;2022-12-18T17:51:40;4.40;91.90
35603;DHT22;21725;50.836;4.368;2022-12-18T17:54:42;4.40;92.00
35603;DHT22;21725;50.836;4.368;2022-12-18T17:57:43;4.50;92.00
35603;DHT22;21725;50.836;4.368;2022-12-18T18:00:44;4.40;92.20
35603;DHT22;21725;50.836;4.368;2022-12-18T18:03:46;4.40;92.90
35603;DHT22;21725;50.836;4.368;2022-12-18T18:06:47;4.20;92.90
35603;DHT22;21725;50.836;4.368;2022-12-18T18:10:01;4.90;92.90
35603;DHT22;21725;50.836;4.368;2022-12-18T18:13:02;4.70;93.10
35603;DHT22;21725;50.836;4.368;2022-12-18T18:16:22;4.60;93.60
35603;DHT22;21725;50.836;4.368;2022-12-18T18:19:23;4.60;94.30
35603;DHT22;21725;50.836;4.368;2022-12-18T18:22:29;4.40;94.70
35603;DHT22;21725;50.836;4.368;2022-12-18T18:25:35;4.40;95.10
35603;DHT22;21725;50.836;4.368;2022-12-18T18:28:37;4.40;95.30
35603;DHT22;21725;50.836;4.368;2022-12-18T18:31:38;4.30;95.30
35603;DHT22;21725;50.836;4.368;2022-12-18T18:34:41;4.50;95.90
35603;DHT22;21725;50.836;4.368;2022-12-18T18:37:42;4.40;96.00
35603;DHT22;21725;50.836;4.368;2022-12-18T18:41:14;4.30;96.70
35603;DHT22;21725;50.836;4.368;2022-12-18T18:44:18;4.60;96.60
35603;DHT22;21725;50.836;4.368;2022-12-18T18:47:20;4.20;97.00
35603;DHT22;21725;50.836;4.368;2022-12-18T18:50:24;4.10;97.10
35603;DHT22;21725;50.836;4.368;2022-12-18T18:53:28;4.10;97.50
35603;DHT22;21725;50.836;4.368;2022-12-18T18:56:31;4.30;97.60
35603;DHT22;21725;50.836;4.368;2022-12-18T18:59:32;4.40;97.70
35603;DHT22;21725;50.836;4.368;2022-12-18T19:02:33;4.50;97.60
35603;DHT22;21725;50.836;4.368;2022-12-18T19:05:34;4.70;97.50
35603;DHT22;21725;50.836;4.368;2022-12-18T19:08:37;4.70;97.40
35603;DHT22;21725;50.836;4.368;2022-12-18T19:11:38;4.40;98.10
35603;DHT22;21725;50.836;4.368;2022-12-18T19:14:57;4.50;98.30
35603;DHT22;21725;50.836;4.368;2022-12-18T19:17:58;4.60;98.50
35603;DHT22;21725;50.836;4.368;2022-12-18T19:21:04;4.60;98.50
35603;DHT22;21725;50.836;4.368;2022-12-18T19:24:06;4.60;98.70
35603;DHT22;21725;50.836;4.368;2022-12-18T19:27:06;4.50;99.10
35603;DHT22;21725;50.836;4.368;2022-12-18T19:30:11;4.70;99.10
35603;DHT22;21725;50.836;4.368;2022-12-18T19:33:14;4.70;99.10
35603;DHT22;21725;50.836;4.368;2022-12-18T19:36:23;4.60;99.20
35603;DHT22;21725;50.836;4.368;2022-12-18T19:39:24;4.50;99.40
35603;DHT22;21725;50.836;4.368;2022-12-18T19:42:25;4.60;99.80
35603;DHT22;21725;50.836;4.368;2022-12-18T19:45:26;4.60;99.90
35603;DHT22;21725;50.836;4.368;2022-12-18T19:48:28;4.70;99.90
35603;DHT22;21725;50.836;4.368;2022-12-18T19:51:30;4.70;99.90
35603;DHT22;21725;50.836;4.368;2022-12-18T19:54:31;4.70;99.90
35603;DHT22;21725;50.836;4.368;2022-12-18T19:57:31;4.70;99.90
35603;DHT22;21725;50.836;4.368;2022-12-18T20:00:32;5.20;99.90
35603;DHT22;21725;50.836;4.368;2022-12-18T20:03:33;5.20;99.90
35603;DHT22;21725;50.836;4.368;2022-12-18T20:06:48;4.70;99.90
35603;DHT22;21725;50.836;4.368;2022-12-18T20:09:49;4.60;99.90
35603;DHT22;21725;50.836;4.368;2022-12-18T20:12:50;4.90;99.90
35603;DHT22;21725;50.836;4.368;2022-12-18T20:15:51;5.00;99.90
35603;DHT22;21725;50.836;4.368;2022-12-18T20:18:55;4.60;99.90
35603;DHT22;21725;50.836;4.368;2022-12-18T20:21:55;5.10;99.90
35603;DHT22;21725;50.836;4.368;2022-12-18T20:24:56;4.70;99.90
35603;DHT22;21725;50.836;4.368;2022-12-18T20:27:57;4.80;99.90
35603;DHT22;21725;50.836;4.368;2022-12-18T20:31:07;4.80;99.90
35603;DHT22;21725;50.836;4.368;2022-12-18T20:34:08;4.80;99.90
35603;DHT22;21725;50.836;4.368;2022-12-18T20:37:09;4.80;99.90
35603;DHT22;21725;50.836;4.368;2022-12-18T20:40:10;4.70;99.90
35603;DHT22;21725;50.836;4.368;2022-12-18T20:43:10;4.80;99.90
35603;DHT22;21725;50.836;4.368;2022-12-18T20:46:17;4.80;99.90
35603;DHT22;21725;50.836;4.368;2022-12-18T20:49:18;4.80;99.90
35603;DHT22;21725;50.836;4.368;2022-12-18T20:52:19;4.90;99.90
35603;DHT22;21725;50.836;4.368;2022-12-18T20:55:19;4.90;99.90
35603;DHT22;21725;50.836;4.368;2022-12-18T20:58:21;4.80;99.90
35603;DHT22;21725;50.836;4.368;2022-12-18T21:05:04;4.80;99.90
35603;DHT22;21725;50.836;4.368;2022-12-18T21:08:05;4.40;99.90
35603;DHT22;21725;50.836;4.368;2022-12-18T21:14:37;4.20;99.90
35603;DHT22;21725;50.836;4.368;2022-12-18T21:46:28;4.90;99.90
35603;DHT22;21725;50.836;4.368;2022-12-18T21:49:36;5.10;99.90
35603;DHT22;21725;50.836;4.368;2022-12-18T21:52:37;5.10;99.90
35603;DHT22;21725;50.836;4.368;2022-12-18T21:55:38;5.20;99.90
35603;DHT22;21725;50.836;4.368;2022-12-18T22:01:50;5.40;99.90
35603;DHT22;21725;50.836;4.368;2022-12-18T22:17:33;5.30;99.90
35603;DHT22;21725;50.836;4.368;2022-12-18T22:20:38;5.50;99.90
35603;DHT22;21725;50.836;4.368;2022-12-18T22:23:41;5.70;99.90
35603;DHT22;21725;50.836;4.368;2022-12-18T22:29:52;5.80;99.90
35603;DHT22;21725;50.836;4.368;2022-12-18T22:33:08;5.70;99.90
35603;DHT22;21725;50.836;4.368;2022-12-18T22:36:09;5.80;99.90
35603;DHT22;21725;50.836;4.368;2022-12-18T22:42:21;5.60;99.90
35603;DHT22;21725;50.836;4.368;2022-12-18T22:45:23;5.60;99.90
35603;DHT22;21725;50.836;4.368;2022-12-18T22:51:37;5.80;99.90
35603;DHT22;21725;50.836;4.368;2022-12-18T22:54:42;4.60;99.90
35603;DHT22;21725;50.836;4.368;2022-12-18T23:00:53;6.00;99.90
35603;DHT22;21725;50.836;4.368;2022-12-18T23:24:04;4.30;99.90
35603;DHT22;21725;50.836;4.368;2022-12-18T23:27:05;4.50;99.90
35603;DHT22;21725;50.836;4.368;2022-12-18T23:30:06;5.00;99.90
35603;DHT22;21725;50.836;4.368;2022-12-18T23:33:07;5.50;99.90
35603;DHT22;21725;50.836;4.368;2022-12-18T23:36:11;5.90;99.90
35603;DHT22;21725;50.836;4.368;2022-12-18T23:39:13;6.10;99.90
35603;DHT22;21725;50.836;4.368;2022-12-18T23:42:14;6.20;99.90
35603;DHT22;21725;50.836;4.368;2022-12-18T23:45:15;6.20;99.90
35603;DHT22;21725;50.836;4.368;2022-12-18T23:48:15;6.30;99.90
35603;DHT22;21725;50.836;4.368;2022-12-18T23:51:18;6.30;99.90
35603;DHT22;21725;50.836;4.368;2022-12-18T23:54:19;6.40;99.90
35603;DHT22;21725;50.836;4.368;2022-12-18T23:57:20;6.50;99.90
